createdAt,value
2022-11-19T00:13:41.554Z,96159.19
2022-11-19T00:16:12.432Z,96156.78
2022-11-19T00:39:07.489Z,96166.31
2022-11-19T00:45:08.946Z,96175.59
2022-11-19T00:47:35.357Z,96172.69
2022-11-19T01:13:44.989Z,96185.31
2022-11-19T01:17:02.750Z,96182.25
2022-11-19T01:19:30.645Z,96179.81
2022-11-19T03:11:59.777Z,96203.13
2022-11-19T03:18:07.837Z,96205.16
2022-11-19T03:21:45.128Z,96216.16
2022-11-19T03:24:14.631Z,96215.13
2022-11-19T03:33:39.440Z,96217.63
2022-11-19T03:40:21.664Z,96231.84
2022-11-19T04:02:28.894Z,96231.97
2022-11-19T04:04:23.173Z,96244.66
2022-11-19T04:06:50.145Z,96253.56
2022-11-19T04:09:17.611Z,96253.56
2022-11-19T04:14:10.728Z,96258.69
2022-11-19T04:16:37.317Z,96257.22
2022-11-19T04:19:03.736Z,96248.75
2022-11-19T04:21:30.570Z,96249.31
2022-11-19T04:23:57.216Z,96251.00
2022-11-19T04:26:23.840Z,96250.47
2022-11-19T04:28:51.046Z,96249.53
2022-11-19T04:31:18.178Z,96252.16
2022-11-19T04:37:12.607Z,96253.66
2022-11-19T04:39:38.996Z,96255.97
2022-11-19T04:42:05.418Z,96253.28
2022-11-19T04:55:02.788Z,96264.13
2022-11-19T05:00:58.061Z,96254.59
2022-11-19T05:03:24.668Z,96252.72
2022-11-19T05:06:01.488Z,96260.03
2022-11-19T05:08:28.963Z,96261.16
2022-11-19T05:11:25.270Z,96262.53
2022-11-19T05:20:07.091Z,96271.22
2022-11-19T05:22:43.641Z,96265.81
2022-11-19T05:25:12.326Z,96267.88
2022-11-19T05:27:38.922Z,96268.44
2022-11-19T05:30:05.723Z,96265.41
2022-11-19T05:32:32.058Z,96265.53
2022-11-19T05:53:16.406Z,96283.81
2022-11-19T05:59:40.940Z,96289.16
2022-11-19T06:02:13.903Z,96289.69
2022-11-19T06:04:40.278Z,96289.03
2022-11-19T06:07:19.274Z,96296.81
2022-11-19T06:09:45.770Z,96292.31
2022-11-19T06:12:29.994Z,96295.75
2022-11-19T06:14:59.440Z,96300.44
2022-11-19T06:21:39.008Z,96302.31
2022-11-19T06:27:33.673Z,96310.03
2022-11-19T06:30:00.060Z,96315.34
2022-11-19T06:32:26.564Z,96310.25
2022-11-19T06:34:52.937Z,96318.38
2022-11-19T06:37:19.334Z,96324.38
2022-11-19T06:39:45.730Z,96326.34
2022-11-19T06:42:30.753Z,96324.44
2022-11-19T06:44:57.125Z,96328.28
2022-11-19T06:47:23.481Z,96327.91
2022-11-19T06:49:49.901Z,96322.13
2022-11-19T06:52:16.257Z,96325.38
2022-11-19T06:54:43.409Z,96331.31
2022-11-19T06:57:10.147Z,96322.72
2022-11-19T06:59:38.863Z,96332.41
2022-11-19T07:02:05.663Z,96333.66
2022-11-19T07:04:32.152Z,96334.75
2022-11-19T07:06:58.631Z,96333.72
2022-11-19T07:09:25.152Z,96343.03
2022-11-19T07:11:51.527Z,96347.88
2022-11-19T07:14:17.891Z,96336.72
2022-11-19T07:16:44.306Z,96351.19
2022-11-19T07:19:10.675Z,96345.03
2022-11-19T07:21:37.097Z,96346.59
2022-11-19T07:24:05.183Z,96339.31
2022-11-19T07:26:33.074Z,96351.63
2022-11-19T07:29:04.683Z,96352.78
2022-11-19T07:31:31.666Z,96348.81
2022-11-19T07:33:58.068Z,96356.50
2022-11-19T07:36:24.736Z,96357.06
2022-11-19T07:38:52.299Z,96361.84
2022-11-19T07:41:37.932Z,96359.59
2022-11-19T07:44:04.884Z,96363.31
2022-11-19T07:46:31.289Z,96364.06
2022-11-19T07:48:58.130Z,96365.88
2022-11-19T07:51:24.729Z,96370.97
2022-11-19T07:53:51.546Z,96368.25
2022-11-19T07:56:18.351Z,96372.97
2022-11-19T07:58:44.813Z,96368.34
2022-11-19T08:01:18.420Z,96373.09
2022-11-19T08:03:53.391Z,96369.94
2022-11-19T08:06:22.941Z,96368.69
2022-11-19T08:08:49.347Z,96363.34
2022-11-19T08:11:16.478Z,96362.94
2022-11-19T08:13:43.015Z,96367.53
2022-11-19T08:16:13.533Z,96370.56
2022-11-19T08:18:39.910Z,96371.53
2022-11-19T08:21:07.779Z,96375.38
2022-11-19T08:23:34.205Z,96380.84
2022-11-19T08:26:00.644Z,96382.50
2022-11-19T08:28:27.533Z,96389.63
2022-11-19T08:30:53.922Z,96385.66
2022-11-19T08:33:20.594Z,96385.44
2022-11-19T08:37:35.959Z,96391.94
2022-11-19T08:47:11.622Z,96404.94
2022-11-19T08:49:37.987Z,96404.13
2022-11-19T08:52:04.402Z,96400.13
2022-11-19T08:57:53.711Z,96398.84
2022-11-19T09:10:43.428Z,96416.66
2022-11-19T09:23:33.883Z,96433.25
2022-11-19T09:26:04.941Z,96429.56
2022-11-19T09:35:45.299Z,96439.94
2022-11-19T10:02:19.264Z,96435.44
2022-11-19T10:08:50.584Z,96433.47
2022-11-19T10:25:33.873Z,96434.19
2022-11-19T10:38:36.634Z,96419.06
2022-11-19T10:55:17.693Z,96404.06
2022-11-19T11:01:35.481Z,96404.81
2022-11-19T11:04:28.414Z,96401.50
2022-11-19T11:07:35.086Z,96398.22
2022-11-19T11:10:01.515Z,96393.09
2022-11-19T11:13:22.126Z,96389.59
2022-11-19T11:19:36.002Z,96389.63
2022-11-19T11:22:39.767Z,96395.34
2022-11-19T11:25:35.405Z,96376.84
2022-11-19T11:28:06.952Z,96380.13
2022-11-19T11:30:33.800Z,96378.28
2022-11-19T11:33:24.708Z,96366.50
2022-11-19T11:35:52.772Z,96359.91
2022-11-19T11:38:29.006Z,96357.63
2022-11-19T11:41:31.522Z,96353.59
2022-11-19T11:44:01.444Z,96349.31
2022-11-19T11:46:40.233Z,96350.16
2022-11-19T11:49:14.448Z,96338.81
2022-11-19T11:51:41.063Z,96332.06
2022-11-19T11:54:18.651Z,96328.66
2022-11-19T11:56:46.136Z,96326.56
2022-11-19T11:59:27.021Z,96325.44
2022-11-19T12:01:54.747Z,96320.41
2022-11-19T12:04:21.474Z,96321.41
2022-11-19T12:06:52.865Z,96329.94
2022-11-19T12:09:27.816Z,96324.28
2022-11-19T12:12:13.116Z,96332.06
2022-11-19T12:16:28.003Z,96336.66
2022-11-19T12:29:53.164Z,96367.22
2022-11-19T12:32:45.255Z,96370.75
2022-11-19T12:35:30.125Z,96369.94
2022-11-19T12:43:54.799Z,96368.91
2022-11-19T12:50:42.283Z,96370.50
2022-11-19T12:53:23.753Z,96367.66
2022-11-19T12:56:30.392Z,96367.22
2022-11-19T12:58:59.853Z,96365.75
2022-11-19T13:22:51.314Z,96366.63
2022-11-19T13:38:48.252Z,96358.44
2022-11-19T13:41:25.347Z,96363.88
2022-11-19T13:44:14.572Z,96358.59
2022-11-19T13:46:46.198Z,96363.44
2022-11-19T13:52:10.523Z,96374.66
2022-11-19T13:54:41.049Z,96380.66
2022-11-19T13:57:09.748Z,96383.34
2022-11-19T13:59:47.446Z,96367.50
2022-11-19T14:02:32.301Z,96368.72
2022-11-19T14:05:20.185Z,96363.16
2022-11-19T14:08:11.494Z,96364.63
2022-11-19T14:10:44.328Z,96365.47
2022-11-19T14:13:51.628Z,96360.69
2022-11-19T14:16:51.975Z,96364.03
2022-11-19T14:19:37.336Z,96371.66
2022-11-19T14:23:13.819Z,96369.63
2022-11-19T14:26:01.573Z,96381.22
2022-11-19T14:28:53.991Z,96368.44
2022-11-19T14:31:20.788Z,96369.69
2022-11-19T14:33:47.203Z,96368.22
2022-11-19T14:36:28.364Z,96361.63
2022-11-19T14:39:01.438Z,96362.44
2022-11-19T14:41:35.186Z,96358.72
2022-11-19T14:44:13.029Z,96360.38
2022-11-19T14:46:48.308Z,96352.13
2022-11-19T14:49:33.523Z,96354.00
2022-11-19T14:52:00.659Z,96352.75
2022-11-19T14:54:43.031Z,96361.63
2022-11-19T15:00:22.771Z,96347.16
2022-11-19T15:02:53.808Z,96353.44
2022-11-19T15:05:33.166Z,96367.44
2022-11-19T15:08:17.994Z,96367.41
2022-11-19T15:10:49.138Z,96370.72
2022-11-19T15:13:40.674Z,96378.56
2022-11-19T15:16:22.789Z,96394.19
2022-11-19T15:19:27.036Z,96385.16
2022-11-19T15:22:19.797Z,96377.16
2022-11-19T15:25:22.731Z,96375.31
2022-11-19T15:27:56.629Z,96374.22
2022-11-19T15:30:37.955Z,96371.97
2022-11-19T15:33:08.519Z,96374.66
2022-11-19T15:36:06.103Z,96382.13
2022-11-19T15:39:01.446Z,96373.13
2022-11-19T15:41:31.545Z,96386.25
2022-11-19T15:43:59.731Z,96392.06
2022-11-19T15:46:38.986Z,96392.88
2022-11-19T15:49:11.398Z,96402.91
2022-11-19T15:52:05.332Z,96399.28
2022-11-19T15:54:34.835Z,96394.63
2022-11-19T15:57:06.315Z,96397.22
2022-11-19T15:59:38.364Z,96401.63
2022-11-19T16:02:15.679Z,96401.78
2022-11-19T16:04:42.357Z,96395.56
2022-11-19T16:07:10.195Z,96401.44
2022-11-19T16:09:37.754Z,96402.47
2022-11-19T16:12:22.809Z,96411.34
2022-11-19T16:15:10.195Z,96408.06
2022-11-19T16:17:46.711Z,96412.94
2022-11-19T16:20:13.213Z,96411.25
2022-11-19T16:23:00.942Z,96416.75
2022-11-19T16:25:41.176Z,96427.19
2022-11-19T16:28:12.710Z,96422.38
2022-11-19T16:30:46.273Z,96420.78
2022-11-19T16:33:22.515Z,96422.72
2022-11-19T16:35:53.294Z,96429.34
2022-11-19T16:38:26.200Z,96427.50
2022-11-19T16:41:12.537Z,96431.13
2022-11-19T16:43:43.739Z,96442.38
2022-11-19T16:46:15.663Z,96432.34
2022-11-19T16:48:42.603Z,96440.34
2022-11-19T16:51:41.164Z,96449.00
2022-11-19T16:54:10.635Z,96455.63
2022-11-19T16:56:42.448Z,96448.47
2022-11-19T16:59:17.624Z,96447.06
2022-11-19T17:01:53.884Z,96456.63
2022-11-19T17:04:21.638Z,96458.50
2022-11-19T17:06:48.666Z,96455.50
2022-11-19T17:09:35.923Z,96468.38
2022-11-19T17:12:17.755Z,96462.75
2022-11-19T17:14:48.694Z,96462.06
2022-11-19T17:17:29.250Z,96457.19
2022-11-19T17:19:57.527Z,96462.91
2022-11-19T17:22:32.667Z,96462.31
2022-11-19T17:25:01.953Z,96470.63
2022-11-19T17:27:28.412Z,96472.75
2022-11-19T17:30:10.729Z,96478.13
2022-11-19T17:32:41.316Z,96474.09
2022-11-19T17:35:29.482Z,96480.41
2022-11-19T17:37:58.818Z,96479.72
2022-11-19T17:40:25.426Z,96487.78
2022-11-19T17:43:11.041Z,96488.53
2022-11-19T17:45:37.511Z,96481.13
2022-11-19T17:48:16.109Z,96483.66
2022-11-19T17:50:42.531Z,96480.56
2022-11-19T17:53:09.031Z,96480.31
2022-11-19T17:55:35.919Z,96476.63
2022-11-19T17:58:02.393Z,96477.53
2022-11-19T18:00:29.016Z,96476.69
2022-11-19T18:03:00.317Z,96478.72
2022-11-19T18:05:33.723Z,96484.94
2022-11-19T18:08:00.293Z,96479.03
2022-11-19T18:10:26.857Z,96479.81
2022-11-19T18:12:53.404Z,96477.63
2022-11-19T18:15:20.623Z,96481.22
2022-11-19T18:17:47.244Z,96476.69
2022-11-19T18:20:14.025Z,96474.09
2022-11-19T18:22:41.188Z,96467.28
2022-11-19T18:25:14.733Z,96464.81
2022-11-19T18:27:41.270Z,96458.19
2022-11-19T18:30:08.363Z,96457.44
2022-11-19T18:32:35.687Z,96456.25
2022-11-19T18:35:02.301Z,96465.41
2022-11-19T18:37:29.454Z,96465.34
2022-11-19T18:39:56.107Z,96467.88
2022-11-19T18:42:28.636Z,96470.63
2022-11-19T18:44:55.106Z,96481.25
2022-11-19T18:47:23.380Z,96474.69
2022-11-19T18:49:50.097Z,96473.91
2022-11-19T18:52:16.638Z,96479.31
2022-11-19T18:54:43.583Z,96467.69
2022-11-19T18:57:12.097Z,96479.03
2022-11-19T18:59:39.232Z,96478.28
2022-11-19T19:02:06.460Z,96485.25
2022-11-19T19:04:32.948Z,96476.34
2022-11-19T19:06:59.465Z,96481.31
2022-11-19T19:09:26.447Z,96473.91
2022-11-19T19:12:16.553Z,96472.22
2022-11-19T19:14:44.658Z,96474.94
2022-11-19T19:17:11.913Z,96470.91
2022-11-19T19:19:38.962Z,96474.66
2022-11-19T19:22:06.076Z,96480.81
2022-11-19T19:24:32.956Z,96481.56
2022-11-19T19:27:00.255Z,96482.25
2022-11-19T19:29:27.004Z,96483.00
2022-11-19T19:31:53.793Z,96487.72
2022-11-19T19:34:20.589Z,96494.59
2022-11-19T19:36:52.705Z,96506.13
2022-11-19T19:39:19.878Z,96504.97
2022-11-19T19:41:46.725Z,96505.13
2022-11-19T19:44:13.243Z,96515.41
2022-11-19T19:46:39.713Z,96516.31
2022-11-19T19:49:06.212Z,96511.34
2022-11-19T19:51:32.914Z,96519.16
2022-11-19T19:54:00.280Z,96520.66
2022-11-19T19:56:31.985Z,96521.84
2022-11-19T19:58:59.424Z,96530.50
2022-11-19T20:01:28.584Z,96526.47
2022-11-19T20:04:08.861Z,96533.19
2022-11-19T20:06:38.090Z,96536.16
2022-11-19T20:09:08.973Z,96532.53
2022-11-19T20:11:36.656Z,96534.16
2022-11-19T20:14:04.178Z,96528.97
2022-11-19T20:16:32.150Z,96531.53
2022-11-19T20:18:59.979Z,96529.47
2022-11-19T20:21:29.211Z,96529.66
2022-11-19T20:23:55.822Z,96520.00
2022-11-19T20:26:24.734Z,96517.53
2022-11-19T20:28:59.623Z,96521.56
2022-11-19T20:31:26.593Z,96526.22
2022-11-19T20:33:59.254Z,96518.44
2022-11-19T20:36:28.269Z,96518.31
2022-11-19T20:38:57.382Z,96523.03
2022-11-19T20:41:42.543Z,96523.13
2022-11-19T20:44:20.592Z,96510.31
2022-11-19T20:47:00.309Z,96513.00
2022-11-19T20:49:29.272Z,96511.13
2022-11-19T20:51:56.504Z,96512.22
2022-11-19T20:54:24.499Z,96503.91
2022-11-19T20:56:52.367Z,96507.22
2022-11-19T20:59:19.819Z,96510.72
2022-11-19T21:01:49.418Z,96505.28
2022-11-19T21:04:16.319Z,96509.50
2022-11-19T21:06:42.828Z,96509.31
2022-11-19T21:09:09.444Z,96511.09
2022-11-19T21:11:36.049Z,96513.63
2022-11-19T21:14:03.564Z,96520.25
2022-11-19T21:16:30.651Z,96519.34
2022-11-19T21:18:57.179Z,96522.44
2022-11-19T21:21:24.553Z,96517.16
2022-11-19T21:23:52.191Z,96516.31
2022-11-19T21:26:21.328Z,96519.00
2022-11-19T21:28:52.349Z,96521.63
2022-11-19T21:31:21.959Z,96524.22
2022-11-19T21:33:48.750Z,96524.72
2022-11-19T21:36:15.269Z,96531.69
2022-11-19T21:38:41.795Z,96535.06
2022-11-19T21:41:08.265Z,96535.81
2022-11-19T21:43:35.336Z,96531.38
2022-11-19T21:46:01.913Z,96529.78
2022-11-19T21:48:28.507Z,96527.00
2022-11-19T21:50:55.005Z,96529.09
2022-11-19T21:53:21.528Z,96529.25
2022-11-19T21:55:49.185Z,96519.66
2022-11-19T21:58:16.553Z,96523.13
2022-11-19T22:00:44.220Z,96528.56
2022-11-19T22:03:10.933Z,96534.06
2022-11-19T22:05:37.536Z,96536.47
2022-11-19T22:08:04.374Z,96532.38
2022-11-19T22:10:31.013Z,96532.53
2022-11-19T22:12:58.650Z,96519.25
2022-11-19T22:15:26.674Z,96523.03
2022-11-19T22:17:53.165Z,96536.66
2022-11-19T22:20:19.719Z,96522.03
2022-11-19T22:22:46.548Z,96522.94
2022-11-19T22:25:13.506Z,96531.44
2022-11-19T22:27:41.670Z,96523.78
2022-11-19T22:30:10.157Z,96522.75
2022-11-19T22:32:37.162Z,96522.44
2022-11-19T22:35:04.717Z,96530.00
2022-11-19T22:37:31.302Z,96527.25
2022-11-19T22:39:57.872Z,96529.00
2022-11-19T22:42:24.661Z,96540.53
2022-11-19T22:44:51.691Z,96531.78
2022-11-19T22:47:18.183Z,96533.41
2022-11-19T22:49:44.712Z,96538.94
2022-11-19T22:52:11.192Z,96533.06
2022-11-19T22:54:41.624Z,96536.31
2022-11-19T22:57:08.694Z,96529.97
2022-11-19T22:59:35.765Z,96529.09
2022-11-19T23:02:02.664Z,96531.09
2022-11-19T23:04:29.427Z,96524.31
2022-11-19T23:06:56.118Z,96526.66
2022-11-19T23:09:23.239Z,96514.72
2022-11-19T23:12:08.605Z,96519.44
2022-11-19T23:14:35.121Z,96512.78
2022-11-19T23:17:01.603Z,96527.06
2022-11-19T23:19:28.114Z,96530.94
2022-11-19T23:21:54.622Z,96529.66
2022-11-19T23:24:21.232Z,96523.44
2022-11-19T23:26:47.738Z,96531.06
2022-11-19T23:29:14.364Z,96523.25
2022-11-19T23:31:40.875Z,96533.69
2022-11-19T23:34:07.919Z,96529.47
2022-11-19T23:36:39.768Z,96530.56
2022-11-19T23:39:10.122Z,96528.97
2022-11-19T23:41:36.754Z,96526.44
2022-11-19T23:44:03.303Z,96518.53
2022-11-19T23:46:33.211Z,96523.59
2022-11-19T23:49:00.737Z,96520.25
2022-11-19T23:51:32.587Z,96517.47
2022-11-19T23:53:59.522Z,96521.66
2022-11-19T23:56:28.708Z,96530.59
2022-11-19T23:58:55.579Z,96525.91
